Time;durP1;ratioP1;P1;durP2;ratioP2;P2;SDS_P1;SDS_P2;PMS_P1;PMS_P2;Temp;Humidity;BMP_temperature;BMP_pressure;BME280_temperature;BME280_humidity;BME280_pressure;Samples;Min_cycle;Max_cycle;Signal;HPM_P1;HPM_P2
2024/02/17 00:00:00;;;;;;;186.90;110.70;;;23.00;51.50;;;;;;5069273;28;20055;-36
2024/02/17 00:02:27;;;;;;;185.45;110.13;;;23.00;51.60;;;;;;5073279;28;20033;-35
2024/02/17 00:04:53;;;;;;;174.18;103.80;;;23.00;51.60;;;;;;5064974;28;20029;-35
2024/02/17 00:07:19;;;;;;;170.10;102.40;;;23.00;51.60;;;;;;5046450;28;20075;-36
2024/02/17 00:09:46;;;;;;;171.60;100.93;;;23.00;51.60;;;;;;5031953;28;20032;-36
2024/02/17 00:12:12;;;;;;;168.38;99.72;;;22.90;51.50;;;;;;5049062;28;20294;-36
2024/02/17 00:14:38;;;;;;;158.35;96.68;;;22.90;51.50;;;;;;5048086;28;20056;-35
2024/02/17 00:17:04;;;;;;;164.70;96.43;;;22.90;51.50;;;;;;5027434;28;20056;-35
2024/02/17 00:19:31;;;;;;;152.27;89.22;;;22.90;51.40;;;;;;5052020;28;20040;-35
2024/02/17 00:21:57;;;;;;;143.68;86.40;;;22.90;51.40;;;;;;5043745;28;20116;-35
2024/02/17 00:24:24;;;;;;;143.68;86.22;;;22.90;51.40;;;;;;5047397;28;20060;-35
2024/02/17 00:26:50;;;;;;;138.90;81.75;;;22.90;51.40;;;;;;5047857;28;20033;-34
2024/02/17 00:29:16;;;;;;;136.07;80.85;;;22.90;51.30;;;;;;5049254;28;20084;-34
2024/02/17 00:31:48;;;;;;;129.65;79.85;;;22.90;51.30;;;;;;5044506;28;20029;-34
2024/02/17 00:34:15;;;;;;;131.15;77.85;;;22.90;51.20;;;;;;5047696;28;20057;-34
2024/02/17 00:36:41;;;;;;;127.82;78.50;;;22.90;51.20;;;;;;5044538;28;20026;-35
2024/02/17 00:39:09;;;;;;;126.72;75.80;;;22.90;51.20;;;;;;5045334;28;20672;-38
2024/02/17 00:41:36;;;;;;;125.50;73.78;;;22.90;51.20;;;;;;5046947;28;20030;-34
2024/02/17 00:44:03;;;;;;;129.63;75.07;;;22.80;51.10;;;;;;5045059;28;20038;-34
2024/02/17 00:46:29;;;;;;;79.82;48.60;;;22.80;51.10;;;;;;5048738;28;20040;-34
2024/02/17 00:48:55;;;;;;;111.15;67.38;;;22.80;51.10;;;;;;5062026;28;20021;-39
2024/02/17 00:51:22;;;;;;;111.47;66.15;;;22.80;51.10;;;;;;5057165;28;20033;-34
2024/02/17 00:53:48;;;;;;;107.10;63.80;;;22.80;51.10;;;;;;5060948;28;20036;-34
2024/02/17 00:56:15;;;;;;;104.10;64.10;;;22.80;51.00;;;;;;5060872;28;20033;-34
2024/02/17 00:58:41;;;;;;;101.28;61.20;;;22.80;51.00;;;;;;5062302;28;20029;-34
2024/02/17 01:01:09;;;;;;;98.83;60.87;;;22.80;51.00;;;;;;5060747;28;20032;-35
2024/02/17 01:03:35;;;;;;;94.55;58.70;;;22.80;50.90;;;;;;5061952;28;20023;-34
2024/02/17 01:06:03;;;;;;;99.15;58.63;;;22.80;50.90;;;;;;5071904;28;20048;-34
2024/02/17 01:08:29;;;;;;;;;;;22.80;51.00;;;;;;5076537;28;20029;-35
2024/02/17 01:10:55;;;;;;;96.35;56.35;;;22.70;50.70;;;;;;5074014;28;19908;-35
2024/02/17 01:13:21;;;;;;;84.20;53.17;;;22.70;50.70;;;;;;5072669;28;20039;-34
2024/02/17 01:15:47;;;;;;;88.45;54.60;;;22.70;50.60;;;;;;5082270;28;20511;-35
2024/02/17 01:18:13;;;;;;;85.35;51.33;;;22.70;50.60;;;;;;5074595;28;20042;-35
2024/02/17 01:20:39;;;;;;;77.97;49.05;;;22.70;50.50;;;;;;5081516;28;20020;-35
2024/02/17 01:23:06;;;;;;;76.40;48.97;;;22.70;50.50;;;;;;5081143;28;20038;-35
2024/02/17 01:25:32;;;;;;;73.22;46.15;;;22.70;50.40;;;;;;5084987;28;20022;-35
2024/02/17 01:27:58;;;;;;;77.05;47.28;;;22.70;50.40;;;;;;5078107;28;20029;-34
2024/02/17 01:30:24;;;;;;;74.78;45.22;;;22.70;50.30;;;;;;5078585;28;20029;-35
2024/02/17 01:32:50;;;;;;;72.75;44.80;;;22.70;50.30;;;;;;5079677;28;20033;-35
2024/02/17 01:35:17;;;;;;;69.70;43.83;;;22.70;50.30;;;;;;5083936;28;20045;-34
2024/02/17 01:37:43;;;;;;;66.70;41.78;;;22.60;50.20;;;;;;5081035;28;20033;-34
2024/02/17 01:40:09;;;;;;;67.07;42.70;;;22.60;50.20;;;;;;5084811;28;20024;-34
2024/02/17 01:42:35;;;;;;;64.07;40.90;;;22.60;50.20;;;;;;5085065;28;20340;-34
2024/02/17 01:45:03;;;;;;;61.40;39.42;;;22.60;50.20;;;;;;5079206;28;20076;-34
2024/02/17 01:47:29;;;;;;;59.92;39.03;;;22.60;50.10;;;;;;5077319;28;20085;-33
2024/02/17 01:49:56;;;;;;;61.92;39.05;;;22.60;50.10;;;;;;5048318;28;20036;-33
2024/02/17 01:52:22;;;;;;;60.33;38.90;;;22.60;50.10;;;;;;5076385;28;20062;-34
2024/02/17 01:54:48;;;;;;;55.83;36.97;;;22.50;50.10;;;;;;5081288;28;20032;-34
2024/02/17 01:57:14;;;;;;;56.80;36.42;;;22.50;50.10;;;;;;5084766;28;20503;-33
2024/02/17 01:59:41;;;;;;;54.65;35.47;;;22.50;50.10;;;;;;5076505;28;20440;-33
2024/02/17 02:02:07;;;;;;;55.08;35.58;;;22.50;50.10;;;;;;5074721;28;20080;-34
2024/02/17 02:04:34;;;;;;;40.83;24.73;;;22.50;50.00;;;;;;5066377;28;20032;-34
2024/02/17 02:07:00;;;;;;;49.90;31.63;;;22.50;50.00;;;;;;5064086;28;20052;-34
2024/02/17 02:09:26;;;;;;;41.38;28.75;;;22.50;50.00;;;;;;5085124;28;20028;-34
2024/02/17 02:12:06;;;;;;;41.70;26.42;;;22.50;50.10;;;;;;5079390;28;20029;-34
2024/02/17 02:14:33;;;;;;;36.38;25.23;;;22.50;50.20;;;;;;5077559;28;20035;-34
2024/02/17 02:17:00;;;;;;;37.20;24.97;;;22.50;50.10;;;;;;5080608;28;20197;-34
2024/02/17 02:19:26;;;;;;;37.83;26.48;;;22.50;50.10;;;;;;5065829;28;20033;-34
2024/02/17 02:21:52;;;;;;;37.75;25.40;;;22.50;50.10;;;;;;5083750;28;20036;-34
2024/02/17 02:24:18;;;;;;;38.10;25.98;;;22.50;50.00;;;;;;5079020;28;20051;-34
2024/02/17 02:26:44;;;;;;;33.55;24.40;;;22.40;49.90;;;;;;5082983;28;20032;-33
2024/02/17 02:29:10;;;;;;;35.40;24.17;;;22.40;49.90;;;;;;5084138;28;20028;-33
2024/02/17 02:31:37;;;;;;;33.00;21.92;;;22.40;49.90;;;;;;5079171;28;20504;-34
2024/02/17 02:34:03;;;;;;;26.33;20.35;;;22.40;49.90;;;;;;5080234;28;20036;-34
2024/02/17 02:36:29;;;;;;;28.08;19.27;;;22.40;50.00;;;;;;5077163;28;20034;-35
2024/02/17 02:38:56;;;;;;;26.85;20.42;;;22.40;50.00;;;;;;5073789;28;20039;-34
2024/02/17 02:41:22;;;;;;;30.38;20.10;;;22.40;49.90;;;;;;5076442;28;20021;-34
2024/02/17 02:43:49;;;;;;;25.88;19.05;;;22.40;49.90;;;;;;5080816;28;20028;-34
2024/02/17 02:46:15;;;;;;;27.38;19.02;;;22.40;49.80;;;;;;5078956;28;20144;-34
2024/02/17 02:48:41;;;;;;;27.50;18.67;;;22.40;49.80;;;;;;5075862;28;20666;-34
2024/02/17 02:51:08;;;;;;;23.88;16.98;;;22.40;49.80;;;;;;5077510;28;20033;-34
2024/02/17 02:53:34;;;;;;;19.77;16.27;;;22.40;49.80;;;;;;5074525;28;20178;-34
2024/02/17 02:56:01;;;;;;;20.10;15.65;;;22.40;49.90;;;;;;5073768;28;20037;-34
2024/02/17 02:58:27;;;;;;;;;;;22.40;49.90;;;;;;5083892;28;20025;-34
2024/02/17 03:00:53;;;;;;;20.92;15.63;;;22.40;49.80;;;;;;5072675;28;19912;-33
2024/02/17 03:03:19;;;;;;;18.70;14.90;;;22.40;49.80;;;;;;5083507;28;20032;-33
2024/02/17 03:05:46;;;;;;;18.40;14.82;;;22.40;49.80;;;;;;5083353;28;20108;-33
2024/02/17 03:08:12;;;;;;;17.63;14.50;;;22.40;49.70;;;;;;5076564;28;20024;-34
2024/02/17 03:10:38;;;;;;;18.67;13.70;;;22.40;49.70;;;;;;5078960;28;20048;-34
2024/02/17 03:13:04;;;;;;;15.90;12.35;;;22.40;49.80;;;;;;5078483;28;20499;-34
2024/02/17 03:15:30;;;;;;;15.30;12.40;;;22.40;49.90;;;;;;5070744;28;20028;-33
2024/02/17 03:17:57;;;;;;;15.77;13.15;;;22.40;49.90;;;;;;5077843;28;20036;-34
2024/02/17 03:20:23;;;;;;;15.68;12.40;;;22.40;49.80;;;;;;5082347;28;20025;-34
2024/02/17 03:22:49;;;;;;;16.13;12.18;;;22.40;49.80;;;;;;5083475;28;20115;-35
2024/02/17 03:25:15;;;;;;;15.88;12.45;;;22.40;49.80;;;;;;5082594;28;20580;-34
2024/02/17 03:27:42;;;;;;;11.03;8.37;;;22.40;49.70;;;;;;5079985;28;20036;-34
2024/02/17 03:30:08;;;;;;;13.80;11.60;;;22.40;49.70;;;;;;5082596;28;20036;-34
2024/02/17 03:32:34;;;;;;;13.17;10.60;;;22.40;49.70;;;;;;5079004;28;20029;-34
2024/02/17 03:35:03;;;;;;;12.55;10.88;;;22.40;49.80;;;;;;5082922;28;20063;-34
2024/02/17 03:37:30;;;;;;;12.43;10.10;;;22.40;49.80;;;;;;5076810;28;20028;-34
2024/02/17 03:39:56;;;;;;;13.55;10.43;;;22.40;49.70;;;;;;5081836;28;20039;-33
2024/02/17 03:42:22;;;;;;;11.73;10.38;;;22.40;49.70;;;;;;5082906;28;20052;-34
2024/02/17 03:44:49;;;;;;;14.18;10.57;;;22.40;49.70;;;;;;5082098;28;20032;-34
2024/02/17 03:47:15;;;;;;;11.77;10.13;;;22.40;49.60;;;;;;5071156;28;20027;-33
2024/02/17 03:49:41;;;;;;;11.55;9.48;;;22.40;49.70;;;;;;5082851;28;20032;-34
2024/02/17 03:52:07;;;;;;;10.43;9.18;;;22.40;49.80;;;;;;5081884;28;20033;-34
2024/02/17 03:54:34;;;;;;;11.50;9.40;;;22.40;49.80;;;;;;5082505;28;20043;-33
2024/02/17 03:57:00;;;;;;;11.00;9.18;;;22.40;49.70;;;;;;5076971;28;20025;-40
2024/02/17 03:59:26;;;;;;;9.95;8.57;;;22.40;49.70;;;;;;5076007;28;20029;-34
2024/02/17 04:01:55;;;;;;;9.98;8.93;;;22.40;49.60;;;;;;5073458;28;20139;-35
2024/02/17 04:04:24;;;;;;;10.30;8.60;;;22.40;49.60;;;;;;5077629;28;20025;-34
2024/02/17 04:06:50;;;;;;;9.55;8.52;;;22.40;49.50;;;;;;5078326;28;20072;-35
2024/02/17 04:09:16;;;;;;;10.07;8.52;;;22.30;49.60;;;;;;5080009;28;20043;-34
2024/02/17 04:11:42;;;;;;;10.73;8.20;;;22.40;49.70;;;;;;5082078;28;20050;-34
2024/02/17 04:14:09;;;;;;;9.85;8.40;;;22.40;49.70;;;;;;5078661;28;20051;-34
2024/02/17 04:16:35;;;;;;;10.45;8.57;;;22.40;49.70;;;;;;5061793;28;20123;-34
2024/02/17 04:19:01;;;;;;;10.18;8.38;;;22.40;49.60;;;;;;5080933;28;20024;-34
2024/02/17 04:21:27;;;;;;;9.18;8.05;;;22.40;49.50;;;;;;5082150;28;20029;-34
2024/02/17 04:23:54;;;;;;;9.27;8.38;;;22.40;49.50;;;;;;5082030;28;20096;-34
2024/02/17 04:26:20;;;;;;;8.93;7.90;;;22.40;49.40;;;;;;5081292;28;20092;-34
2024/02/17 04:28:49;;;;;;;7.78;6.97;;;22.40;49.50;;;;;;5077714;28;20028;-34
2024/02/17 04:31:15;;;;;;;9.15;7.78;;;22.40;49.70;;;;;;5081418;28;20025;-33
2024/02/17 04:33:41;;;;;;;9.57;7.43;;;22.40;49.60;;;;;;5082623;28;20036;-34
2024/02/17 04:36:08;;;;;;;7.80;7.10;;;22.40;49.60;;;;;;5080982;28;20025;-33
2024/02/17 04:38:35;;;;;;;11.10;7.15;;;22.40;49.50;;;;;;5076535;28;20067;-34
2024/02/17 04:41:02;;;;;;;8.82;6.85;;;22.40;49.40;;;;;;5080227;28;20096;-34
2024/02/17 04:43:28;;;;;;;9.18;7.70;;;22.40;49.40;;;;;;5073753;28;20052;-34
2024/02/17 04:45:54;;;;;;;8.85;7.00;;;22.30;49.30;;;;;;5080829;28;20142;-34
2024/02/17 04:48:20;;;;;;;7.57;6.82;;;22.30;49.40;;;;;;5081386;28;20651;-34
2024/02/17 04:50:46;;;;;;;8.57;6.32;;;22.30;49.50;;;;;;5078456;28;20028;-35
2024/02/17 04:53:13;;;;;;;7.10;6.40;;;22.40;49.60;;;;;;5081506;28;20044;-35
2024/02/17 04:55:39;;;;;;;8.48;6.97;;;22.40;49.50;;;;;;5078643;28;20017;-34
2024/02/17 04:58:06;;;;;;;7.90;6.65;;;22.40;49.40;;;;;;5079243;28;20054;-34
2024/02/17 05:00:33;;;;;;;7.82;6.55;;;22.40;49.40;;;;;;5078905;28;20111;-34
2024/02/17 05:02:59;;;;;;;14.05;7.53;;;22.30;49.30;;;;;;5078460;28;20790;-35
2024/02/17 05:05:25;;;;;;;8.50;6.57;;;22.30;49.20;;;;;;5073702;28;20045;-35
2024/02/17 05:07:51;;;;;;;10.40;6.35;;;22.30;49.40;;;;;;5066129;28;20060;-34
2024/02/17 05:10:18;;;;;;;7.57;6.78;;;22.30;49.40;;;;;;5065357;28;20033;-34
2024/02/17 05:12:44;;;;;;;7.93;6.45;;;22.40;49.30;;;;;;5065599;28;20120;-34
2024/02/17 05:15:11;;;;;;;8.15;7.22;;;22.40;49.30;;;;;;5065313;28;20049;-34
2024/02/17 05:17:37;;;;;;;7.60;6.70;;;22.40;49.20;;;;;;5066331;28;20068;-34
2024/02/17 05:20:03;;;;;;;8.32;6.38;;;22.30;49.10;;;;;;5065753;28;20029;-33
2024/02/17 05:22:29;;;;;;;7.97;6.75;;;22.30;49.00;;;;;;5058655;28;20021;-34
2024/02/17 05:24:56;;;;;;;7.85;6.65;;;22.30;49.00;;;;;;5065890;28;20057;-34
2024/02/17 05:27:22;;;;;;;7.25;6.55;;;22.30;49.10;;;;;;5064879;28;20028;-35
2024/02/17 05:29:48;;;;;;;7.22;6.30;;;22.40;49.20;;;;;;5065847;28;20195;-33
2024/02/17 05:32:14;;;;;;;7.43;6.47;;;22.40;49.10;;;;;;5065190;28;20110;-35
2024/02/17 05:34:41;;;;;;;6.70;6.00;;;22.40;49.00;;;;;;5065864;28;20036;-33
2024/02/17 05:37:07;;;;;;;6.20;5.60;;;22.30;48.90;;;;;;5064680;28;20032;-34
2024/02/17 05:39:33;;;;;;;6.80;6.10;;;22.30;48.90;;;;;;5060455;28;20041;-34
2024/02/17 05:42:00;;;;;;;7.65;6.20;;;22.30;48.90;;;;;;5064717;28;20545;-34
2024/02/17 05:44:26;;;;;;;7.70;6.03;;;22.30;49.00;;;;;;5064964;28;20025;-34
2024/02/17 05:46:52;;;;;;;6.47;5.70;;;22.30;49.00;;;;;;5065526;28;20039;-34
2024/02/17 05:49:22;;;;;;;7.70;6.47;;;22.40;49.00;;;;;;5061525;28;20040;-34
2024/02/17 05:51:49;;;;;;;6.47;5.78;;;22.30;48.90;;;;;;5060222;28;20024;-34
2024/02/17 05:54:18;;;;;;;;;;;22.30;48.90;;;;;;5046843;28;20115;-34
2024/02/17 05:56:45;;;;;;;6.75;6.05;;;22.30;48.80;;;;;;5064154;28;19924;-35
2024/02/17 05:59:11;;;;;;;6.80;6.10;;;22.30;48.90;;;;;;5065095;28;20033;-35
2024/02/17 06:01:37;;;;;;;6.50;5.80;;;22.30;49.00;;;;;;5064725;28;20032;-34
2024/02/17 06:04:03;;;;;;;6.30;5.70;;;22.30;49.00;;;;;;5064685;28;20032;-33
2024/02/17 06:06:30;;;;;;;6.43;5.57;;;22.30;49.00;;;;;;5072925;28;20048;-34
2024/02/17 06:08:56;;;;;;;6.25;5.63;;;22.30;48.90;;;;;;5085195;28;20020;-34
2024/02/17 06:11:22;;;;;;;6.53;5.30;;;22.30;48.90;;;;;;5081666;28;20024;-34
2024/02/17 06:13:48;;;;;;;6.68;5.95;;;22.30;48.80;;;;;;5084643;28;20040;-34
2024/02/17 06:16:18;;;;;;;6.20;5.60;;;22.30;48.90;;;;;;5084889;28;20037;-34
2024/02/17 06:21:29;;;;;;;6.53;5.78;;;22.30;49.00;;;;;;5084812;28;20099;-34
2024/02/17 06:23:58;;;;;;;5.30;4.80;;;22.30;48.90;;;;;;5084524;28;20051;-34
2024/02/17 06:26:26;;;;;;;5.93;5.35;;;22.30;48.90;;;;;;5084093;28;20046;-34
2024/02/17 06:28:52;;;;;;;5.80;5.22;;;22.30;48.80;;;;;;5084265;28;20046;-34
2024/02/17 06:31:19;;;;;;;5.63;5.13;;;22.30;48.80;;;;;;5083581;28;20167;-34
2024/02/17 06:33:45;;;;;;;5.37;4.87;;;22.30;48.90;;;;;;5084655;28;20036;-35
2024/02/17 06:36:11;;;;;;;5.45;4.93;;;22.30;49.00;;;;;;5084165;28;20277;-34
2024/02/17 06:38:37;;;;;;;5.22;4.72;;;22.30;49.00;;;;;;5083994;28;20032;-35
2024/02/17 06:41:03;;;;;;;5.17;3.90;;;22.30;48.90;;;;;;5084184;28;20032;-34
2024/02/17 06:43:30;;;;;;;5.30;4.80;;;22.30;48.80;;;;;;5067047;28;20053;-41
2024/02/17 06:45:58;;;;;;;5.53;5.03;;;22.30;48.80;;;;;;5067227;28;20053;-34
2024/02/17 06:48:26;;;;;;;5.13;4.65;;;22.30;48.70;;;;;;5070250;28;20635;-34
2024/02/17 06:50:52;;;;;;;5.18;4.65;;;22.30;48.80;;;;;;5069089;28;20032;-34
2024/02/17 06:53:18;;;;;;;5.20;4.70;;;22.30;48.90;;;;;;5067633;28;20135;-33
2024/02/17 06:55:45;;;;;;;5.22;4.72;;;22.40;48.90;;;;;;5067914;28;20028;-33
2024/02/17 06:58:12;;;;;;;5.20;4.70;;;22.40;48.90;;;;;;5071252;28;20047;-33
2024/02/17 07:00:38;;;;;;;4.65;4.25;;;22.30;48.80;;;;;;5069233;28;20545;-34
2024/02/17 07:03:04;;;;;;;5.03;4.53;;;22.30;48.70;;;;;;5051612;28;20044;-33
2024/02/17 07:05:34;;;;;;;4.80;4.40;;;22.30;48.70;;;;;;5060766;28;20092;-33
2024/02/17 07:08:00;;;;;;;4.55;4.15;;;22.30;48.80;;;;;;5049924;28;20048;-33
2024/02/17 07:10:26;;;;;;;5.00;4.55;;;22.30;48.90;;;;;;5049597;28;20035;-33
2024/02/17 07:12:52;;;;;;;4.88;4.38;;;22.30;48.80;;;;;;5049860;28;20044;-34
2024/02/17 07:15:18;;;;;;;5.00;4.50;;;22.40;48.80;;;;;;5049650;28;20033;-34
2024/02/17 07:17:44;;;;;;;4.47;4.07;;;22.40;48.80;;;;;;5052994;28;20051;-33
2024/02/17 07:20:11;;;;;;;5.32;4.40;;;22.30;49.30;;;;;;5048404;28;20071;-33
2024/02/17 07:22:37;;;;;;;4.40;4.00;;;22.30;48.70;;;;;;5030902;28;20108;-33
2024/02/17 07:25:04;;;;;;;4.20;3.80;;;22.30;48.80;;;;;;5030956;28;20049;-34
2024/02/17 07:27:30;;;;;;;4.47;4.07;;;22.40;48.90;;;;;;5047420;28;20047;-35
2024/02/17 07:29:57;;;;;;;4.30;3.90;;;22.40;48.90;;;;;;5049490;28;20036;-34
2024/02/17 07:32:24;;;;;;;4.25;3.90;;;22.40;48.80;;;;;;5047966;28;20040;-34
2024/02/17 07:34:53;;;;;;;4.50;4.10;;;22.40;48.80;;;;;;5046748;28;20490;-34
2024/02/17 07:37:19;;;;;;;4.85;4.40;;;22.40;48.70;;;;;;5050389;28;20025;-34
2024/02/17 07:39:46;;;;;;;4.40;3.92;;;22.30;48.70;;;;;;5052541;28;20040;-34
2024/02/17 07:42:12;;;;;;;4.30;3.90;;;22.30;48.80;;;;;;5045208;28;20029;-41
2024/02/17 07:44:45;;;;;;;3.73;3.40;;;22.40;48.90;;;;;;5047410;28;20037;-34
2024/02/17 07:47:12;;;;;;;3.85;3.40;;;22.40;48.90;;;;;;5048694;28;20029;-34
2024/02/17 07:49:38;;;;;;;4.30;3.90;;;22.40;48.80;;;;;;5046507;28;20029;-33
2024/02/17 07:52:04;;;;;;;4.25;3.85;;;22.40;48.80;;;;;;5048758;28;20044;-34
2024/02/17 07:54:30;;;;;;;4.60;4.10;;;22.40;48.70;;;;;;5051229;28;20029;-34
2024/02/17 07:56:57;;;;;;;4.20;3.83;;;22.40;48.70;;;;;;5048689;28;20149;-34
2024/02/17 07:59:23;;;;;;;4.43;4.03;;;22.40;48.80;;;;;;5053614;28;20091;-34
2024/02/17 08:01:49;;;;;;;4.00;3.60;;;22.40;48.90;;;;;;5050642;28;20037;-34
2024/02/17 08:04:15;;;;;;;4.13;3.65;;;22.40;48.80;;;;;;5048257;28;20059;-34
2024/02/17 08:06:41;;;;;;;5.22;4.20;;;22.40;48.80;;;;;;5067200;28;20499;-34
2024/02/17 08:09:08;;;;;;;4.50;4.10;;;22.40;48.80;;;;;;5066740;28;20043;-33
2024/02/17 08:11:35;;;;;;;4.00;3.70;;;22.40;48.70;;;;;;5076694;28;20501;-35
2024/02/17 08:14:02;;;;;;;4.40;4.00;;;22.40;48.80;;;;;;5068463;28;20065;-35
2024/02/17 08:16:28;;;;;;;3.63;3.33;;;22.40;48.90;;;;;;5071948;28;20032;-35
2024/02/17 08:18:54;;;;;;;4.10;3.70;;;22.40;48.90;;;;;;5068048;28;20082;-35
2024/02/17 08:21:20;;;;;;;4.00;3.63;;;22.40;48.80;;;;;;5070880;28;20176;-36
2024/02/17 08:23:46;;;;;;;4.10;3.70;;;22.40;48.80;;;;;;5070135;28;20025;-35
2024/02/17 08:26:16;;;;;;;4.00;3.58;;;22.40;48.80;;;;;;5069034;28;20096;-34
2024/02/17 08:28:42;;;;;;;4.32;3.92;;;22.40;48.70;;;;;;5070326;28;20048;-34
2024/02/17 08:31:08;;;;;;;3.72;3.42;;;22.40;48.80;;;;;;5066854;28;20028;-35
2024/02/17 08:33:36;;;;;;;4.03;3.72;;;22.40;48.90;;;;;;5067453;28;20045;-35
2024/02/17 08:36:02;;;;;;;4.10;3.70;;;22.40;49.40;;;;;;5067667;28;20052;-35
2024/02/17 08:38:28;;;;;;;4.15;3.80;;;22.40;48.80;;;;;;5072094;28;20028;-35
2024/02/17 08:40:54;;;;;;;4.35;3.63;;;22.40;48.80;;;;;;5065678;28;20033;-35
2024/02/17 08:43:20;;;;;;;4.30;3.80;;;22.40;49.30;;;;;;5070146;28;20032;-34
2024/02/17 08:45:46;;;;;;;4.13;3.72;;;22.40;48.70;;;;;;5075041;28;20021;-34
2024/02/17 08:48:12;;;;;;;4.07;3.67;;;22.40;48.80;;;;;;5082044;28;20033;-33
2024/02/17 08:50:38;;;;;;;3.85;3.42;;;22.40;48.80;;;;;;5082086;28;20485;-34
2024/02/17 08:53:04;;;;;;;4.22;3.83;;;22.40;48.80;;;;;;5075551;28;20082;-33
2024/02/17 08:55:31;;;;;;;4.20;3.70;;;22.40;48.80;;;;;;5077090;28;20028;-33
2024/02/17 08:57:57;;;;;;;3.85;3.45;;;22.40;48.80;;;;;;5079023;28;20727;-34
2024/02/17 09:00:24;;;;;;;4.10;3.70;;;22.40;48.80;;;;;;5074685;28;20024;-35
2024/02/17 09:02:50;;;;;;;3.70;3.40;;;22.40;48.80;;;;;;5082908;28;20063;-35
2024/02/17 09:05:16;;;;;;;4.20;3.80;;;22.40;48.80;;;;;;5075992;28;20067;-35
2024/02/17 09:07:43;;;;;;;3.58;3.28;;;22.40;48.80;;;;;;5057718;28;20029;-35
2024/02/17 09:10:15;;;;;;;3.83;3.50;;;22.50;48.80;;;;;;5061335;28;20033;-34
2024/02/17 09:12:42;;;;;;;4.40;4.00;;;22.50;48.80;;;;;;5062218;28;20139;-34
2024/02/17 09:15:09;;;;;;;4.38;3.97;;;22.50;48.70;;;;;;5061307;28;20784;-42
2024/02/17 09:17:35;;;;;;;4.22;3.83;;;22.40;48.70;;;;;;5061940;28;20036;-34
2024/02/17 09:20:02;;;;;;;4.32;3.90;;;22.40;48.80;;;;;;5059683;28;20080;-34
2024/02/17 09:22:28;;;;;;;4.32;3.83;;;22.40;48.80;;;;;;5061740;28;20040;-34
2024/02/17 09:24:56;;;;;;;4.15;3.75;;;22.50;48.90;;;;;;5060293;28;20044;-35
2024/02/17 09:27:22;;;;;;;4.10;3.70;;;22.50;48.80;;;;;;5060364;28;20756;-35
2024/02/17 09:29:48;;;;;;;4.47;4.05;;;22.50;48.80;;;;;;5062166;28;20025;-34
2024/02/17 09:32:34;;;;;;;4.35;3.90;;;22.50;48.80;;;;;;5061694;28;20456;-34
2024/02/17 09:35:01;;;;;;;5.03;4.20;;;22.40;48.70;;;;;;4978891;28;20683;-34
2024/02/17 09:37:27;;;;;;;5.10;4.25;;;22.40;48.80;;;;;;4980562;28;20039;-34
2024/02/17 09:39:53;;;;;;;5.10;3.80;;;22.50;48.90;;;;;;4975488;28;20067;-34
2024/02/17 09:42:19;;;;;;;4.53;3.80;;;22.50;48.90;;;;;;4979834;28;20031;-34
2024/02/17 09:44:46;;;;;;;4.32;3.92;;;22.50;48.90;;;;;;4979634;28;20401;-39
2024/02/17 09:47:12;;;;;;;4.25;3.85;;;22.50;48.80;;;;;;4983500;28;20061;-35
2024/02/17 09:49:39;;;;;;;4.68;3.97;;;22.50;48.80;;;;;;4984415;28;20605;-34
2024/02/17 09:52:05;;;;;;;5.17;3.93;;;22.40;48.80;;;;;;4983312;28;20097;-33
2024/02/17 09:54:31;;;;;;;4.22;3.80;;;22.50;48.80;;;;;;4961643;28;20296;-34
2024/02/17 09:56:58;;;;;;;4.05;3.65;;;22.50;49.00;;;;;;4982420;28;20039;-34
2024/02/17 09:59:24;;;;;;;4.25;3.85;;;22.50;49.00;;;;;;4981182;28;20059;-34
2024/02/17 10:01:50;;;;;;;3.95;3.60;;;22.50;49.00;;;;;;4979460;28;20879;-34
2024/02/17 10:04:17;;;;;;;5.18;3.95;;;22.50;49.00;;;;;;4976766;28;20038;-34
2024/02/17 10:06:44;;;;;;;;;;;22.50;48.90;;;;;;4976056;28;20042;-34
2024/02/17 10:09:19;;;;;;;5.38;4.00;;;22.50;49.00;;;;;;4982284;28;19910;-34
2024/02/17 10:11:45;;;;;;;3.40;3.10;;;22.50;48.90;;;;;;5010320;28;20089;-34
2024/02/17 10:14:12;;;;;;;4.53;3.90;;;22.40;49.00;;;;;;5063906;28;20092;-34
2024/02/17 10:16:39;;;;;;;;;;;22.50;49.20;;;;;;5064164;28;20282;-34
2024/02/17 10:19:05;;;;;;;4.32;3.70;;;22.50;49.20;;;;;;5064602;28;19935;-34
2024/02/17 10:21:31;;;;;;;3.97;3.58;;;22.50;49.20;;;;;;5060509;28;20039;-34
2024/02/17 10:23:58;;;;;;;4.03;3.63;;;22.50;49.10;;;;;;5064802;28;20028;-34
2024/02/17 10:26:24;;;;;;;4.18;3.78;;;22.50;49.10;;;;;;5064290;28;20025;-34
2024/02/17 10:28:57;;;;;;;3.85;3.53;;;22.50;49.10;;;;;;5046942;28;20027;-34
2024/02/17 10:31:23;;;;;;;4.43;3.20;;;22.50;49.20;;;;;;5056472;28;20037;-34
2024/02/17 10:33:50;;;;;;;3.38;3.08;;;22.50;49.30;;;;;;5063428;28;20037;-35
2024/02/17 10:36:19;;;;;;;3.55;3.25;;;22.50;49.30;;;;;;5054836;28;20021;-34
2024/02/17 10:38:46;;;;;;;3.38;3.08;;;22.50;49.20;;;;;;5059517;28;20501;-34
2024/02/17 10:41:12;;;;;;;3.90;3.40;;;22.50;49.20;;;;;;5063853;28;20033;-34
2024/02/17 10:43:43;;;;;;;3.30;3.00;;;22.50;49.70;;;;;;5061896;28;20095;-34
2024/02/17 10:46:25;;;;;;;3.33;3.00;;;22.50;49.10;;;;;;5063084;28;20037;-33
2024/02/17 10:49:16;;;;;;;2.70;2.50;;;22.50;49.20;;;;;;5058813;28;20051;-34
2024/02/17 10:51:55;;;;;;;2.83;2.60;;;22.50;49.30;;;;;;5055033;28;20036;-34
2024/02/17 10:54:30;;;;;;;3.10;2.53;;;22.50;49.20;;;;;;5061920;28;20037;-34
2024/02/17 10:56:57;;;;;;;2.50;2.30;;;22.50;49.10;;;;;;5041438;28;20032;-34
2024/02/17 10:59:24;;;;;;;2.50;2.30;;;22.50;49.10;;;;;;5059642;28;20346;-34
2024/02/17 11:01:52;;;;;;;2.40;2.20;;;22.50;49.00;;;;;;5040145;28;20029;-34
2024/02/17 11:04:18;;;;;;;2.40;2.20;;;22.50;49.00;;;;;;5060303;28;20042;-34
2024/02/17 11:06:44;;;;;;;2.72;2.08;;;22.50;49.10;;;;;;5038014;28;20049;-35
2024/02/17 11:09:10;;;;;;;1.83;1.73;;;22.50;49.10;;;;;;5038884;28;20082;-33
2024/02/17 11:11:36;;;;;;;1.85;1.75;;;22.50;49.10;;;;;;5027719;28;20033;-34
2024/02/17 11:14:39;;;;;;;1.98;1.83;;;22.50;49.00;;;;;;5060506;28;20040;-33
2024/02/17 11:17:13;;;;;;;1.95;1.70;;;22.50;48.80;;;;;;5059873;28;20033;-34
2024/02/17 11:19:39;;;;;;;1.85;1.75;;;22.50;48.80;;;;;;5059647;28;20032;-34
2024/02/17 11:22:08;;;;;;;1.80;1.70;;;22.40;48.80;;;;;;5063120;28;20096;-34
2024/02/17 11:24:37;;;;;;;1.40;1.30;;;22.50;48.80;;;;;;5057086;28;20124;-33
2024/02/17 11:27:06;;;;;;;1.48;1.38;;;22.50;48.90;;;;;;5060231;28;20055;-34
2024/02/17 11:29:34;;;;;;;1.40;1.20;;;22.50;48.80;;;;;;5034724;28;20491;-34
2024/02/17 11:32:01;;;;;;;1.60;1.50;;;22.50;48.80;;;;;;5059111;28;20044;-34
2024/02/17 11:34:27;;;;;;;;;;;22.50;48.70;;;;;;5061564;28;20459;-35
2024/02/17 11:36:55;;;;;;;1.45;1.30;;;22.50;48.60;;;;;;5063045;28;19912;-34
2024/02/17 11:39:21;;;;;;;1.25;1.15;;;22.40;48.50;;;;;;5040378;28;20029;-34
2024/02/17 11:41:48;;;;;;;1.00;0.90;;;22.40;48.50;;;;;;5029006;28;20032;-35
2024/02/17 11:44:14;;;;;;;1.10;1.00;;;22.40;48.70;;;;;;5044388;28;20058;-35
2024/02/17 11:46:43;;;;;;;0.93;0.90;;;22.40;48.60;;;;;;5063297;28;20579;-35
2024/02/17 11:49:12;;;;;;;1.17;1.02;;;22.50;48.60;;;;;;5062952;28;20033;-34
2024/02/17 11:51:38;;;;;;;0.90;0.90;;;22.40;48.50;;;;;;5062657;28;20886;-34
2024/02/17 11:54:04;;;;;;;1.00;0.87;;;22.40;48.40;;;;;;5062555;28;20048;-35
2024/02/17 11:56:32;;;;;;;0.80;0.80;;;22.40;48.30;;;;;;5055665;28;20341;-34
2024/02/17 11:58:58;;;;;;;1.00;0.80;;;22.40;48.40;;;;;;5062638;28;20037;-34
2024/02/17 12:01:25;;;;;;;0.60;0.60;;;22.40;48.50;;;;;;5056644;28;20025;-35
2024/02/17 12:03:51;;;;;;;0.50;0.50;;;22.40;48.40;;;;;;5061560;28;20098;-35
2024/02/17 12:06:18;;;;;;;0.90;0.65;;;22.40;48.40;;;;;;5074246;28;20040;-35
2024/02/17 12:08:44;;;;;;;0.80;0.73;;;22.40;48.30;;;;;;5072515;28;20031;-35
2024/02/17 12:11:10;;;;;;;0.65;0.60;;;22.40;48.20;;;;;;5082118;28;20032;-34
2024/02/17 12:13:36;;;;;;;0.75;0.75;;;22.40;48.10;;;;;;5080444;28;20064;-34
2024/02/17 12:16:07;;;;;;;0.55;0.52;;;22.40;48.20;;;;;;5076617;28;20032;-34
2024/02/17 12:18:36;;;;;;;0.52;0.52;;;22.40;48.30;;;;;;5076282;28;20032;-35
2024/02/17 12:21:06;;;;;;;0.55;0.40;;;22.40;48.30;;;;;;5068248;28;20045;-34
2024/02/17 12:23:33;;;;;;;0.50;0.50;;;22.40;48.20;;;;;;5077457;28;20028;-34
2024/02/17 12:25:59;;;;;;;0.80;0.70;;;22.40;48.10;;;;;;5082267;28;20062;-33
2024/02/17 12:28:25;;;;;;;0.95;0.57;;;22.40;48.00;;;;;;5082892;28;20055;-35
2024/02/17 12:30:53;;;;;;;0.60;0.40;;;22.30;47.90;;;;;;5081948;28;20029;-33
2024/02/17 12:33:21;;;;;;;0.40;0.38;;;22.30;48.00;;;;;;5081318;28;20040;-35
2024/02/17 12:35:51;;;;;;;0.40;0.30;;;22.40;48.10;;;;;;5082248;28;20020;-35
2024/02/17 12:38:23;;;;;;;0.47;0.32;;;22.40;48.00;;;;;;5082245;28;20033;-34
2024/02/17 12:40:49;;;;;;;0.40;0.40;;;22.40;47.90;;;;;;5082287;28;20107;-33